Detalii statie TOMOIOAGA GABRIEL [00001D05]

Toti senzorii

Date Temperatura solului [C]Precipitatii [mm]Voltaj baterie [mV]Leaf Wetness [Min]HC Air temperature [C]HC Relative humidity [%]Punctul de roua [C]
medieminmaxsumaultimatimpmedieminmaxmediemediemin
2018-06-20 10:00:00 0 7372 30.02 28.04 32.85 0 0 0
2018-06-20 11:00:00 0 7382 31.49 29.86 32.13 0 0 0
2018-06-20 12:00:00 0 7372 33.33 31.01 35.04 0 0 0
2018-06-20 13:00:00 0 7372 35.71 33.15 37.35 0 0 0
2018-06-20 14:00:00 0 7362 35.31 32.98 37.92 0 0 0
2018-06-20 15:00:00 0 7060 32.17 31.31 33.64 0 0 0
2018-06-20 16:00:00 0 7128 35.06 33.63 36.54 0 0 0
2018-06-20 17:00:00 0 7000 60 34.7 33.01 37.65 0 0 0
2018-06-20 18:00:00 0 7098 33.51 32.8 34.97 0 0 0
2018-06-20 19:00:00 0 6904 29.71 26.99 32.57 0 0 0
2018-06-20 20:00:00 0 6854 25.31 24.57 26.89 0 0 0
2018-06-20 21:00:00 0 6854 24.22 23.88 24.48 0 0 0
2018-06-20 22:00:00 0 6844 23.08 22.46 23.73 0 0 0
2018-06-20 23:00:00 0 6834 21.36 20.65 22.26 0 0 0
2018-06-21 00:00:00 0 6844 21.15 20.69 21.41 0 0 0
2018-06-21 01:00:00 0 6834 20.2 19.79 20.73 0 0 0
2018-06-21 02:00:00 0 6834 20.18 19.82 20.35 0 0 0
2018-06-21 03:00:00 0 6826 19.91 19.53 20.24 0 0 0
2018-06-21 04:00:00 0 6826 19.61 19.23 20.17 0 0 0
2018-06-21 05:00:00 0 6826 19.17 19.02 19.31 0 0 0
2018-06-21 06:00:00 0 6826 19.45 19.16 19.94 0 0 0
2018-06-21 07:00:00 0 6854 20.93 20.08 21.87 0 0 0
2018-06-21 08:00:00 0 6914 23.71 22.11 25.12 0 0 0
2018-06-21 09:00:00 0 7118 28.1 25.79 29.71 0 0 0
2018-06-21 10:00:00 0 7216 30.65 29.46 32.13 0 0 0
2018-06-21 11:00:00 0 7372 31.86 30.16 34.68 0 0 0
2018-06-21 12:00:00 0 7088 34.78 31.86 37.33 0 0 0
2018-06-21 13:00:00 0 7070 32.65 31.75 34.37 0 0 0
2018-06-21 14:00:00 0 7080 31.4 29.9 32.39 0 0 0
2018-06-21 15:00:00 0 6962 28.12 26.52 29.5 0 0 0
2018-06-21 16:00:00 0 6904 25.18 23.93 26.35 0 0 0
2018-06-21 17:00:00 0 6914 23.85 23.44 24.49 0 0 0
2018-06-21 18:00:00 0 6904 24.73 24.66 24.86 0 0 0
2018-06-21 19:00:00 0 6864 24.31 23.86 24.69 0 0 0
2018-06-21 20:00:00 0 6854 23.41 22.84 23.81 0 0 0
2018-06-21 21:00:00 0 6854 22.03 21.31 22.67 0 0 0
2018-06-21 22:00:00 0 6844 21.02 20.51 21.34 0 0 0
2018-06-21 23:00:00 0 6834 20.33 20.12 20.51 0 0 0
2018-06-22 00:00:00 0 6834 19.97 19.9 20.02 0 0 0
2018-06-22 01:00:00 0 6826 19.95 19.82 20.03 0 0 0
2018-06-22 02:00:00 0 6826 19.82 19.73 19.89 0 0 0
2018-06-22 03:00:00 0 6816 19.55 19.46 19.74 0 0 0
2018-06-22 04:00:00 0 6826 19.32 19.07 19.54 0 0 0
2018-06-22 05:00:00 0 6826 18.81 18.68 18.97 0 0 0
2018-06-22 06:00:00 0 6826 18.58 18.4 18.67 0 0 0
2018-06-22 07:00:00 0 6844 19.11 18.58 20.4 0 0 0
2018-06-22 08:00:00 0 6922 22.62 20.99 23.7 0 0 0
2018-06-22 09:00:00 0 6942 22.7 18.71 27.62 0 0 0